ENKR

Kirkenes , Høybuktmoen Airport

Kirkenes, Norway
METAR ENKR 191220Z 36005KT 9999 SCT020 BKN034 08/03 Q1003 RMK WIND 731FT 36006KT
Observed Flight Rules
Sep-19 @ 12:20 UTC (35 minutes ago) Visual Flight Rules
Wind Visibility Clouds
360° at 5 knots 10,000+ meters
  • Scattered at 2,000' AGL
  • Broken at 3,400' AGL
Temperatures Readings
Current 8°C / 46°F
Dewpoint 3°C / 37°F
Humidity 71%
Altimeter 29.62" Hg
Pressure 1003 hPa
Elevation 91
METAR ENKR 191220Z 36005KT 9999 SCT020 BKN034 08/03 Q1003 RMK WIND 731FT 36006KT
Observed Flight Rules
Sep-19 @ 12:20 UTC
(35 minutes ago)
VFR
Wind Visibility
360° at 5 knots 10,000+ meters
Clouds
  • Scattered at 2,000' AGL
  • Broken at 3,400' AGL
Temperature Dewpoint
8°C / 46°F 3°C / 37°F
Humidity Altimeter Pressure
71% 29.62" Hg 1003 hPa